createdAt,value
2023-09-20T00:02:15.708Z,1.73
2023-09-20T00:04:49.026Z,1.30
2023-09-20T00:07:17.570Z,1.47
2023-09-20T00:09:45.771Z,0.67
2023-09-20T00:12:13.841Z,1.00
2023-09-20T00:14:42.121Z,1.30
2023-09-20T00:17:10.221Z,0.80
2023-09-20T00:19:41.200Z,0.90
2023-09-20T00:22:12.320Z,1.30
2023-09-20T00:24:40.703Z,1.10
2023-09-20T00:27:10.157Z,1.00
2023-09-20T00:29:38.942Z,0.90
2023-09-20T00:32:08.464Z,1.40
2023-09-20T00:34:37.056Z,1.20
2023-09-20T00:37:05.394Z,1.10
2023-09-20T00:39:34.901Z,1.27
2023-09-20T00:42:03.447Z,1.47
2023-09-20T00:44:32.004Z,1.27
2023-09-20T00:47:00.543Z,0.90
2023-09-20T00:49:30.623Z,1.40
2023-09-20T00:51:58.884Z,1.20
2023-09-20T00:54:27.185Z,1.53
2023-09-20T00:56:56.682Z,0.60
2023-09-20T00:59:25.042Z,1.17
2023-09-20T01:01:53.750Z,1.10
2023-09-20T01:04:21.900Z,1.20
2023-09-20T01:06:53.172Z,1.80
2023-09-20T01:09:23.717Z,1.23
2023-09-20T01:11:52.595Z,1.57
2023-09-20T01:14:23.032Z,1.23
2023-09-20T01:16:55.304Z,1.10
2023-09-20T01:19:23.692Z,1.20
2023-09-20T01:21:53.150Z,1.03
2023-09-20T01:24:22.438Z,1.20
2023-09-20T01:26:53.661Z,1.30
2023-09-20T01:29:21.842Z,1.30
2023-09-20T01:31:50.005Z,1.50
2023-09-20T01:34:18.114Z,1.00
2023-09-20T01:36:46.216Z,1.63
2023-09-20T01:39:17.772Z,1.30
2023-09-20T01:41:47.498Z,2.57
2023-09-20T01:44:16.417Z,1.30
2023-09-20T01:46:44.584Z,1.43
2023-09-20T01:49:13.771Z,1.50
2023-09-20T01:51:41.899Z,1.70
2023-09-20T01:54:10.016Z,1.00
2023-09-20T01:56:39.746Z,1.10
2023-09-20T01:59:08.827Z,1.27
2023-09-20T02:01:39.006Z,1.30
2023-09-20T02:04:07.611Z,1.20
2023-09-20T02:06:35.730Z,1.10
2023-09-20T02:09:05.690Z,1.07
2023-09-20T02:11:33.894Z,1.07
2023-09-20T02:14:03.478Z,0.90
2023-09-20T02:16:33.350Z,1.20
2023-09-20T02:19:01.961Z,1.43
2023-09-20T02:21:30.079Z,1.23
2023-09-20T02:23:59.324Z,1.30
2023-09-20T02:26:27.822Z,1.20
2023-09-20T02:28:56.534Z,1.47
2023-09-20T02:31:26.022Z,1.30
2023-09-20T02:33:55.030Z,1.10
2023-09-20T02:36:23.208Z,1.53
2023-09-20T02:38:51.278Z,1.00
2023-09-20T02:41:19.374Z,1.00
2023-09-20T02:43:47.583Z,0.90
2023-09-20T02:46:15.690Z,1.40
2023-09-20T02:48:45.203Z,1.20
2023-09-20T02:51:13.858Z,1.60
2023-09-20T02:53:41.955Z,1.50
2023-09-20T02:56:10.230Z,1.30
2023-09-20T02:58:39.373Z,1.70
2023-09-20T03:01:10.312Z,1.13
2023-09-20T03:03:38.842Z,1.50
2023-09-20T03:06:12.745Z,1.90
2023-09-20T03:08:45.912Z,1.20
2023-09-20T03:11:22.179Z,1.30
2023-09-20T03:13:50.546Z,1.60
2023-09-20T03:16:19.928Z,1.30
2023-09-20T03:18:48.239Z,0.97
2023-09-20T03:21:17.801Z,1.40
2023-09-20T03:23:46.087Z,1.43
2023-09-20T03:26:17.562Z,1.27
2023-09-20T03:28:47.710Z,2.87
2023-09-20T03:31:18.097Z,1.10
2023-09-20T03:33:47.433Z,1.60
2023-09-20T03:36:17.624Z,1.40
2023-09-20T03:38:46.780Z,1.10
2023-09-20T03:41:15.325Z,1.50
2023-09-20T03:43:47.010Z,1.10
2023-09-20T03:46:15.767Z,1.63
2023-09-20T03:48:45.708Z,1.30
2023-09-20T03:51:18.730Z,1.43
2023-09-20T03:53:46.954Z,1.37
2023-09-20T03:56:15.999Z,1.17
2023-09-20T03:58:44.515Z,0.80
2023-09-20T04:01:13.282Z,0.90
2023-09-20T04:03:43.281Z,1.50
2023-09-20T04:06:11.874Z,0.90
2023-09-20T04:08:42.881Z,1.17
2023-09-20T04:11:13.214Z,1.20
2023-09-20T04:13:41.810Z,1.40
2023-09-20T04:16:10.137Z,1.10
2023-09-20T04:18:38.974Z,1.20
2023-09-20T04:21:07.114Z,0.90
2023-09-20T04:23:35.253Z,1.30
2023-09-20T04:26:05.430Z,2.63
2023-09-20T04:28:33.576Z,1.50
2023-09-20T04:31:02.022Z,1.20
2023-09-20T04:33:30.154Z,1.10
2023-09-20T04:35:59.720Z,1.10
2023-09-20T04:38:27.901Z,1.47
2023-09-20T04:40:58.013Z,1.57
2023-09-20T04:43:27.670Z,1.43
2023-09-20T04:45:56.562Z,1.20
2023-09-20T04:48:25.142Z,1.33
2023-09-20T04:50:56.820Z,2.10
2023-09-20T04:53:25.533Z,1.67
2023-09-20T04:55:53.732Z,1.30
2023-09-20T04:58:21.820Z,1.00
2023-09-20T05:00:51.320Z,1.73
2023-09-20T05:03:20.811Z,1.20
2023-09-20T05:05:53.375Z,1.20
2023-09-20T05:08:21.898Z,1.30
2023-09-20T05:10:50.028Z,1.63
2023-09-20T05:13:19.692Z,1.00
2023-09-20T05:15:47.832Z,1.67
2023-09-20T05:18:17.563Z,1.20
2023-09-20T05:20:46.968Z,1.27
2023-09-20T05:23:15.316Z,1.43
2023-09-20T05:25:43.633Z,1.30
2023-09-20T05:28:11.763Z,1.60
2023-09-20T05:30:39.941Z,2.13
2023-09-20T05:33:08.661Z,1.23
2023-09-20T05:35:39.968Z,1.40
2023-09-20T05:38:08.527Z,1.40
2023-09-20T05:40:36.688Z,1.50
2023-09-20T05:43:05.458Z,1.10
2023-09-20T05:45:33.676Z,1.70
2023-09-20T05:48:02.428Z,1.53
2023-09-20T05:50:35.464Z,1.27
2023-09-20T05:53:07.408Z,1.77
2023-09-20T05:55:39.094Z,1.47
2023-09-20T05:58:07.585Z,1.00
2023-09-20T06:00:36.814Z,1.30
2023-09-20T06:03:06.362Z,1.53
2023-09-20T06:05:38.357Z,1.40
2023-09-20T06:08:08.666Z,1.47
2023-09-20T06:10:36.911Z,3.30
2023-09-20T06:13:06.647Z,1.60
2023-09-20T06:15:34.846Z,1.93
2023-09-20T06:18:04.007Z,1.97
2023-09-20T06:20:32.371Z,1.53
2023-09-20T06:23:00.727Z,2.70
2023-09-20T06:25:30.741Z,1.87
2023-09-20T06:27:59.504Z,1.77
2023-09-20T06:30:27.622Z,1.67
2023-09-20T06:32:55.853Z,2.23
2023-09-20T06:35:24.331Z,2.03
2023-09-20T06:37:52.866Z,1.50
2023-09-20T06:40:24.257Z,2.00
2023-09-20T06:42:54.680Z,1.83
2023-09-20T06:45:25.318Z,1.90
2023-09-20T06:47:53.527Z,1.90
2023-09-20T06:50:21.667Z,1.90
2023-09-20T06:52:49.974Z,1.93
2023-09-20T06:55:20.143Z,1.57
2023-09-20T06:57:49.424Z,1.87
2023-09-20T07:00:27.919Z,2.00
2023-09-20T07:02:58.346Z,2.37
2023-09-20T07:05:29.422Z,2.93
2023-09-20T07:08:00.039Z,2.17
2023-09-20T07:10:29.452Z,3.60
2023-09-20T07:12:57.865Z,3.20
2023-09-20T07:15:29.637Z,3.17
2023-09-20T07:18:01.659Z,3.23
2023-09-20T07:20:30.808Z,3.63
2023-09-20T07:22:59.637Z,3.00
2023-09-20T07:25:29.634Z,3.67
2023-09-20T07:28:00.495Z,3.83
2023-09-20T07:30:33.245Z,3.47
2023-09-20T07:35:41.116Z,4.00
2023-09-20T07:38:18.818Z,3.50
2023-09-20T07:40:51.592Z,4.53
2023-09-20T07:43:29.087Z,3.77
2023-09-20T07:46:04.508Z,4.50
2023-09-20T07:48:34.518Z,4.97
2023-09-20T07:51:05.558Z,5.00
2023-09-20T07:53:34.064Z,5.30
2023-09-20T07:56:05.088Z,4.80
2023-09-20T07:58:37.054Z,6.97
2023-09-20T08:01:17.350Z,6.93
2023-09-20T08:03:52.473Z,6.73
2023-09-20T08:06:22.145Z,5.00
2023-09-20T08:08:50.681Z,4.87
2023-09-20T08:11:21.782Z,6.43
2023-09-20T08:13:52.163Z,5.73
2023-09-20T08:16:22.562Z,6.33
2023-09-20T08:19:06.186Z,7.40
2023-09-20T08:21:35.309Z,7.40
2023-09-20T08:24:22.226Z,6.73
2023-09-20T08:27:08.827Z,7.87
2023-09-20T08:29:56.505Z,8.20
2023-09-20T08:32:45.289Z,6.70
2023-09-20T08:35:30.794Z,6.73
2023-09-20T08:38:16.121Z,7.07
2023-09-20T08:41:01.809Z,7.77
2023-09-20T08:43:47.877Z,6.70
2023-09-20T08:46:36.570Z,6.87
2023-09-20T08:49:24.041Z,8.17
2023-09-20T08:52:13.069Z,6.70
2023-09-20T08:54:59.514Z,7.10
2023-09-20T08:57:47.320Z,7.57
2023-09-20T09:00:23.695Z,7.03
2023-09-20T09:02:55.560Z,6.93
2023-09-20T09:05:28.670Z,8.57
2023-09-20T09:07:58.980Z,8.63
2023-09-20T09:10:27.253Z,6.40
2023-09-20T09:12:56.758Z,7.63
2023-09-20T09:15:25.773Z,7.20
2023-09-20T09:17:54.070Z,5.83
2023-09-20T09:20:22.697Z,7.70
2023-09-20T09:22:52.914Z,7.47
2023-09-20T09:25:22.260Z,7.70
2023-09-20T09:27:50.347Z,7.93
2023-09-20T09:30:19.893Z,7.47
2023-09-20T09:32:49.850Z,7.20
2023-09-20T09:35:27.445Z,8.37
2023-09-20T09:38:06.366Z,8.30
2023-09-20T09:40:53.193Z,9.23
2023-09-20T09:43:21.729Z,9.20
2023-09-20T09:45:51.373Z,7.83
2023-09-20T09:48:20.877Z,8.60
2023-09-20T09:50:50.532Z,9.77
2023-09-20T09:53:22.840Z,7.93
2023-09-20T09:55:51.249Z,10.17
2023-09-20T09:58:19.771Z,8.63
2023-09-20T10:00:51.681Z,9.70
2023-09-20T10:03:29.040Z,8.30
2023-09-20T10:06:06.842Z,8.70
2023-09-20T10:08:40.024Z,8.77
2023-09-20T10:11:09.437Z,8.57
2023-09-20T10:13:38.991Z,9.60
2023-09-20T10:16:13.100Z,10.77
2023-09-20T10:19:01.483Z,9.93
2023-09-20T10:21:32.754Z,8.67
2023-09-20T10:24:07.367Z,9.33
2023-09-20T10:26:36.420Z,9.50
2023-09-20T10:29:29.824Z,10.73
2023-09-20T10:32:08.395Z,9.37
2023-09-20T10:34:39.676Z,10.20
2023-09-20T10:37:12.251Z,8.37
2023-09-20T10:39:43.669Z,10.70
2023-09-20T10:42:14.608Z,9.70
2023-09-20T10:44:44.095Z,10.13
2023-09-20T10:47:15.451Z,9.30
2023-09-20T10:49:48.634Z,9.50
2023-09-20T10:52:56.230Z,9.00
2023-09-20T10:55:38.414Z,9.40
2023-09-20T10:58:08.302Z,7.90
2023-09-20T11:00:37.408Z,11.03
2023-09-20T11:03:09.810Z,9.60
2023-09-20T11:05:39.526Z,7.43
2023-09-20T11:08:10.140Z,9.13
2023-09-20T11:10:42.248Z,8.70
2023-09-20T11:13:15.665Z,8.70
2023-09-20T11:15:48.196Z,8.73
2023-09-20T11:18:18.477Z,10.73
2023-09-20T11:20:47.093Z,10.93
2023-09-20T11:23:16.212Z,7.63
2023-09-20T11:25:45.772Z,9.07
2023-09-20T11:28:14.776Z,9.87
2023-09-20T11:30:45.633Z,9.27
2023-09-20T11:33:28.450Z,10.30
2023-09-20T11:35:56.922Z,9.57
2023-09-20T11:38:25.186Z,8.13
2023-09-20T11:40:54.760Z,7.70
2023-09-20T11:43:22.942Z,7.50
2023-09-20T11:46:01.263Z,8.43
2023-09-20T11:48:30.855Z,6.93
2023-09-20T11:50:59.161Z,8.83
2023-09-20T11:53:31.379Z,8.60
2023-09-20T11:56:04.519Z,7.00
2023-09-20T11:58:34.715Z,6.43
2023-09-20T12:01:05.221Z,7.70
2023-09-20T12:03:33.760Z,7.83
2023-09-20T12:06:02.693Z,7.57
2023-09-20T12:08:34.596Z,7.80
2023-09-20T12:11:04.327Z,6.63
2023-09-20T12:13:32.375Z,7.27
2023-09-20T12:16:00.800Z,8.20
2023-09-20T12:18:29.369Z,8.20
2023-09-20T12:20:59.156Z,7.77
2023-09-20T12:23:27.633Z,7.53
2023-09-20T12:25:55.758Z,7.03
2023-09-20T12:28:26.017Z,8.30
2023-09-20T12:30:54.377Z,7.23
2023-09-20T12:33:22.685Z,7.40
2023-09-20T12:35:51.149Z,7.00
2023-09-20T12:38:19.375Z,6.77
2023-09-20T12:40:47.626Z,7.43
2023-09-20T12:43:17.056Z,7.37
2023-09-20T12:45:47.572Z,6.40
2023-09-20T12:48:16.372Z,8.00
2023-09-20T12:50:50.116Z,5.07
2023-09-20T12:53:18.434Z,7.07
2023-09-20T12:55:46.824Z,5.87
2023-09-20T12:58:17.803Z,6.43
2023-09-20T13:00:50.991Z,6.30
2023-09-20T13:03:19.627Z,6.17
2023-09-20T13:05:48.129Z,5.70
2023-09-20T13:08:19.155Z,5.80
2023-09-20T13:10:51.199Z,5.60
2023-09-20T13:13:19.648Z,5.10
2023-09-20T13:15:49.454Z,5.97
2023-09-20T13:18:17.767Z,6.00
2023-09-20T13:20:46.136Z,4.50
2023-09-20T13:23:14.526Z,4.73
2023-09-20T13:25:44.012Z,4.60
2023-09-20T13:28:13.500Z,5.00
2023-09-20T13:30:43.091Z,4.80
2023-09-20T13:33:14.185Z,4.40
2023-09-20T13:35:42.976Z,4.57
2023-09-20T13:38:12.759Z,5.27
2023-09-20T13:40:41.826Z,4.43
2023-09-20T13:43:14.839Z,3.20
2023-09-20T13:45:44.025Z,4.23
2023-09-20T13:48:16.317Z,3.07
2023-09-20T13:50:45.430Z,3.50
2023-09-20T13:53:14.340Z,3.37
2023-09-20T13:55:42.558Z,2.30
2023-09-20T13:58:10.916Z,2.90
2023-09-20T14:00:39.426Z,3.03
2023-09-20T14:03:09.463Z,2.00
2023-09-20T14:05:39.571Z,1.83
2023-09-20T14:08:09.210Z,2.90
2023-09-20T14:10:39.056Z,2.30
2023-09-20T14:13:09.147Z,2.17
2023-09-20T14:15:37.345Z,2.00
2023-09-20T14:18:06.034Z,2.70
2023-09-20T14:20:34.341Z,3.20
2023-09-20T14:23:05.286Z,4.20
2023-09-20T14:25:33.419Z,2.57
2023-09-20T14:28:01.642Z,2.70
2023-09-20T14:30:29.717Z,2.87
2023-09-20T14:32:57.953Z,3.50
2023-09-20T14:35:26.548Z,2.80
2023-09-20T14:37:56.394Z,2.87
2023-09-20T14:40:27.844Z,4.07
2023-09-20T14:42:57.521Z,3.50
2023-09-20T14:45:29.161Z,3.40
2023-09-20T14:47:58.185Z,3.03
2023-09-20T14:50:28.163Z,1.90
2023-09-20T14:52:57.978Z,3.47
2023-09-20T14:55:29.915Z,4.20
2023-09-20T14:57:59.450Z,4.03
2023-09-20T15:00:30.742Z,3.50
2023-09-20T15:03:00.830Z,2.40
2023-09-20T15:05:29.704Z,2.53
2023-09-20T15:07:58.899Z,3.47
2023-09-20T15:10:29.260Z,2.70
2023-09-20T15:13:00.857Z,2.60
2023-09-20T15:15:29.954Z,2.20
2023-09-20T15:17:59.398Z,2.63
2023-09-20T15:20:44.791Z,1.90
2023-09-20T15:23:12.937Z,3.03
2023-09-20T15:25:43.901Z,2.80
2023-09-20T15:28:12.026Z,2.20
2023-09-20T15:30:41.471Z,2.70
2023-09-20T15:33:10.933Z,2.93
2023-09-20T15:35:39.290Z,4.20
2023-09-20T15:38:09.181Z,3.50
2023-09-20T15:40:37.609Z,4.60
2023-09-20T15:43:09.393Z,2.20
2023-09-20T15:45:37.513Z,2.50
2023-09-20T15:48:06.381Z,5.40
2023-09-20T15:50:35.280Z,5.63
2023-09-20T15:53:03.494Z,4.03
2023-09-20T15:55:31.709Z,2.80
2023-09-20T15:58:00.508Z,3.37
2023-09-20T16:00:30.087Z,3.13
2023-09-20T16:02:58.421Z,3.30
2023-09-20T16:05:26.847Z,2.50
2023-09-20T16:07:55.001Z,1.97
2023-09-20T16:10:23.725Z,3.53
2023-09-20T16:12:52.392Z,3.87
2023-09-20T16:15:23.114Z,2.77
2023-09-20T16:17:55.553Z,3.50
2023-09-20T16:20:23.942Z,3.37
2023-09-20T16:22:52.112Z,2.97
2023-09-20T16:25:20.267Z,3.10
2023-09-20T16:27:48.351Z,4.90
2023-09-20T16:30:17.740Z,4.43
2023-09-20T16:32:46.323Z,3.00
2023-09-20T16:35:19.058Z,3.17
2023-09-20T16:37:47.547Z,2.33
2023-09-20T16:40:16.380Z,3.00
2023-09-20T16:42:44.724Z,2.87
2023-09-20T16:45:15.549Z,3.97
2023-09-20T16:47:44.356Z,2.60
2023-09-20T16:50:14.747Z,3.10
2023-09-20T16:52:44.230Z,3.07
2023-09-20T16:55:13.267Z,3.03
2023-09-20T16:57:41.523Z,2.60
2023-09-20T17:00:13.562Z,2.90
2023-09-20T17:02:42.670Z,2.50
2023-09-20T17:05:16.542Z,3.00
2023-09-20T17:07:46.506Z,2.73
2023-09-20T17:10:18.355Z,3.00
2023-09-20T17:12:46.767Z,3.37
2023-09-20T17:15:16.867Z,3.23
2023-09-20T17:17:45.293Z,2.47
2023-09-20T17:20:13.851Z,2.17
2023-09-20T17:22:42.781Z,2.37
2023-09-20T17:25:14.124Z,2.53
2023-09-20T17:27:46.305Z,3.23
2023-09-20T17:30:18.868Z,2.57
2023-09-20T17:32:49.285Z,3.00
2023-09-20T17:35:18.410Z,2.33
2023-09-20T17:37:47.164Z,2.87
2023-09-20T17:40:18.805Z,2.30
2023-09-20T17:42:47.238Z,2.70
2023-09-20T17:45:18.078Z,2.40
2023-09-20T17:47:46.340Z,2.60
2023-09-20T17:50:15.060Z,1.93
2023-09-20T17:52:43.573Z,2.40
2023-09-20T17:55:12.053Z,2.40
2023-09-20T17:57:43.724Z,2.47
2023-09-20T18:00:15.186Z,2.20
2023-09-20T18:02:43.521Z,1.70
2023-09-20T18:05:11.839Z,2.27
2023-09-20T18:07:39.964Z,2.70
2023-09-20T18:10:08.749Z,2.07
2023-09-20T18:12:36.908Z,1.70
2023-09-20T18:15:09.207Z,2.07
2023-09-20T18:17:41.402Z,2.10
2023-09-20T18:20:11.482Z,2.03
2023-09-20T18:22:40.323Z,1.73
2023-09-20T18:25:10.955Z,2.20
2023-09-20T18:27:39.824Z,1.80
2023-09-20T18:30:11.735Z,2.37
2023-09-20T18:32:40.199Z,1.90
2023-09-20T18:35:08.939Z,2.20
2023-09-20T18:37:37.785Z,1.70
2023-09-20T18:40:08.829Z,1.67
2023-09-20T18:42:37.306Z,1.93
2023-09-20T18:45:07.228Z,1.53
2023-09-20T18:47:44.228Z,1.43
2023-09-20T18:50:16.443Z,2.43
2023-09-20T18:52:47.120Z,1.53
2023-09-20T18:55:17.151Z,2.17
2023-09-20T18:57:51.500Z,2.37
2023-09-20T19:00:20.417Z,1.80
2023-09-20T19:02:50.563Z,2.57
2023-09-20T19:05:19.982Z,2.43
2023-09-20T19:07:49.379Z,2.37
2023-09-20T19:10:18.222Z,1.50
2023-09-20T19:12:46.413Z,2.10
2023-09-20T19:15:16.630Z,2.00
2023-09-20T19:17:45.654Z,2.07
2023-09-20T19:20:19.114Z,2.20
2023-09-20T19:22:47.523Z,2.73
2023-09-20T19:25:18.975Z,2.70
2023-09-20T19:27:48.483Z,2.33
2023-09-20T19:30:19.337Z,2.80
2023-09-20T19:32:48.342Z,2.00
2023-09-20T19:35:18.675Z,2.37
2023-09-20T19:37:47.124Z,2.73
2023-09-20T19:40:20.973Z,1.93
2023-09-20T19:42:51.484Z,2.43
2023-09-20T19:45:20.891Z,2.23
2023-09-20T19:47:49.375Z,2.20
2023-09-20T19:50:20.595Z,2.33
2023-09-20T19:52:49.217Z,2.10
2023-09-20T19:55:20.403Z,2.37
2023-09-20T19:57:48.509Z,1.93
2023-09-20T20:00:20.276Z,2.53
2023-09-20T20:02:50.084Z,2.60
2023-09-20T20:05:20.105Z,1.90
2023-09-20T20:07:50.671Z,2.13
2023-09-20T20:10:19.755Z,2.37
2023-09-20T20:12:48.410Z,2.30
2023-09-20T20:15:19.751Z,3.30
2023-09-20T20:17:50.388Z,2.10
2023-09-20T20:20:22.128Z,1.80
2023-09-20T20:22:54.017Z,2.23
2023-09-20T20:25:26.207Z,2.30
2023-09-20T20:27:58.338Z,2.43
2023-09-20T20:30:29.253Z,2.40
2023-09-20T20:32:58.166Z,2.50
2023-09-20T20:35:28.406Z,3.63
2023-09-20T20:37:57.284Z,2.43
2023-09-20T20:40:26.784Z,3.10
2023-09-20T20:42:56.143Z,2.20
2023-09-20T20:45:24.410Z,2.23
2023-09-20T20:47:54.878Z,1.80
2023-09-20T20:50:27.955Z,2.60
2023-09-20T20:52:59.300Z,2.40
2023-09-20T20:55:29.163Z,2.20
2023-09-20T20:58:01.670Z,2.30
2023-09-20T21:00:31.260Z,2.60
2023-09-20T21:03:02.019Z,2.40
2023-09-20T21:05:32.597Z,2.27
2023-09-20T21:08:03.671Z,2.33
2023-09-20T21:10:32.328Z,2.13
2023-09-20T21:13:02.944Z,2.07
2023-09-20T21:15:32.485Z,1.80
2023-09-20T21:18:01.119Z,3.10
2023-09-20T21:20:29.456Z,2.67
2023-09-20T21:22:59.139Z,2.40
2023-09-20T21:25:31.156Z,2.20
2023-09-20T21:28:00.628Z,1.83
2023-09-20T21:30:30.209Z,2.37
2023-09-20T21:32:59.979Z,2.60
2023-09-20T21:35:29.277Z,2.90
2023-09-20T21:37:57.805Z,2.83
2023-09-20T21:40:29.956Z,2.67
2023-09-20T21:42:59.629Z,2.10
2023-09-20T21:45:28.608Z,2.67
2023-09-20T21:47:57.021Z,2.33
2023-09-20T21:50:26.805Z,3.10
2023-09-20T21:52:56.156Z,2.63
2023-09-20T21:55:24.653Z,2.70
2023-09-20T21:57:54.713Z,2.70
2023-09-20T22:00:31.540Z,2.50
2023-09-20T22:03:01.982Z,3.43
2023-09-20T22:05:30.577Z,3.60
2023-09-20T22:08:02.857Z,3.67
2023-09-20T22:10:39.322Z,3.10
2023-09-20T22:13:10.796Z,2.50
2023-09-20T22:15:41.470Z,2.57
2023-09-20T22:18:18.990Z,2.50
2023-09-20T22:20:51.433Z,3.63
2023-09-20T22:23:21.037Z,3.20
2023-09-20T22:25:50.692Z,2.53
2023-09-20T22:28:20.294Z,3.03
2023-09-20T22:30:48.580Z,3.37
2023-09-20T22:33:17.933Z,2.60
2023-09-20T22:35:54.040Z,3.63
2023-09-20T22:38:25.135Z,2.57
2023-09-20T22:40:53.314Z,3.50
2023-09-20T22:43:22.776Z,2.97
2023-09-20T22:45:50.888Z,2.53
2023-09-20T22:48:20.537Z,2.90
2023-09-20T22:50:48.850Z,2.83
2023-09-20T22:53:18.699Z,2.67
2023-09-20T22:55:49.787Z,3.40
2023-09-20T22:58:21.875Z,2.63
2023-09-20T23:00:52.174Z,2.87
2023-09-20T23:03:22.925Z,2.20
2023-09-20T23:05:52.206Z,2.40
2023-09-20T23:08:20.989Z,2.43
2023-09-20T23:10:53.245Z,2.57
2023-09-20T23:13:26.181Z,3.30
2023-09-20T23:15:55.952Z,3.37
2023-09-20T23:18:25.816Z,2.90
2023-09-20T23:20:56.585Z,2.47
2023-09-20T23:23:26.562Z,2.90
2023-09-20T23:25:56.267Z,2.57
2023-09-20T23:28:25.060Z,2.60
2023-09-20T23:30:59.133Z,2.67
2023-09-20T23:33:36.318Z,3.30
2023-09-20T23:36:05.886Z,3.00
2023-09-20T23:38:39.334Z,2.40
2023-09-20T23:41:15.728Z,2.33
2023-09-20T23:43:45.767Z,2.67
2023-09-20T23:46:21.465Z,2.13
2023-09-20T23:48:51.637Z,1.77
2023-09-20T23:51:20.517Z,3.33
2023-09-20T23:53:49.773Z,2.40
2023-09-20T23:56:18.984Z,2.90
2023-09-20T23:58:48.047Z,2.13
